LAKU weather

Kukës Airport
Kukës, Kukës County, Albania

Public forecast

Using degrees Celsius for public forecast. Weather courtesy of forecast.io.

Closest aviation weather report (METAR) to Kukës Airport

Closest report is Priština International Airport, 42.5 nm (78.7 km) NE. Retrieved 2020/04/02 09:00 UTC (19 minutes ago):

BKPR 020900Z 35008KT 9999 BKN030 01/M04 Q1016 NOSIG RMK 17690395

Closest aviation forecast (TAF) to Kukës Airport

Closest forecast is Priština International Airport, 42.5 nm (78.7 km) NE. Retrieved 2020/04/02 06:30 UTC (3 hours ago):

TAF BKPR 020530Z 0206/0306 17006KT 9999 SCT025 BKN040 BECMG 0302/0305 1500 BR